Time;durP1;ratioP1;P1;durP2;ratioP2;P2;SDS_P1;SDS_P2;PMS_P1;PMS_P2;Temp;Humidity;BMP_temperature;BMP_pressure;BME280_temperature;BME280_humidity;BME280_pressure;Samples;Min_cycle;Max_cycle;Signal;HPM_P1;HPM_P2
2022/03/18 00:00:42;;;;;;;13.63;6.77;;;;;;;;;;5095964;28;20205;-75
2022/03/18 00:03:11;;;;;;;12.53;5.97;;;;;;;;;;5096865;28;20208;-75
2022/03/18 00:05:41;;;;;;;13.03;6.50;;;;;;;;;;5096672;28;20262;-75
2022/03/18 00:08:11;;;;;;;12.27;6.33;;;;;;;;;;5094412;28;20233;-75
2022/03/18 00:10:41;;;;;;;11.67;6.83;;;;;;;;;;5093467;28;20234;-75
2022/03/18 00:13:09;;;;;;;8.83;7.13;;;;;;;;;;5094462;28;20239;-75
2022/03/18 00:15:38;;;;;;;13.30;7.43;;;;;;;;;;5095952;28;20217;-75
2022/03/18 00:18:07;;;;;;;12.03;7.10;;;;;;;;;;5096500;28;20225;-75
2022/03/18 00:20:36;;;;;;;12.57;7.67;;;;;;;;;;5095328;28;20204;-75
2022/03/18 00:23:04;;;;;;;16.27;7.90;;;;;;;;;;5095614;28;20261;-75
2022/03/18 00:25:33;;;;;;;14.33;7.87;;;;;;;;;;5095817;28;20207;-75
2022/03/18 00:28:03;;;;;;;12.63;7.53;;;;;;;;;;5095527;28;20686;-75
2022/03/18 00:30:32;;;;;;;12.40;7.40;;;;;;;;;;5092348;28;20216;-75
2022/03/18 00:33:00;;;;;;;13.90;7.70;;;;;;;;;;5096207;28;20205;-75
2022/03/18 00:35:36;;;;;;;10.17;6.50;;;;;;;;;;5095337;28;20707;-75
2022/03/18 00:38:04;;;;;;;11.13;7.07;;;;;;;;;;5095325;28;20625;-76
2022/03/18 00:40:33;;;;;;;14.13;7.13;;;;;;;;;;5078194;28;20202;-76
2022/03/18 00:43:03;;;;;;;11.67;6.00;;;;;;;;;;5096020;28;20230;-75
2022/03/18 00:45:33;;;;;;;12.93;6.93;;;;;;;;;;5091332;28;20202;-75
2022/03/18 00:53:33;;;;;;;14.70;7.20;;;;;;;;;;5095456;28;20208;-75
2022/03/18 00:56:02;;;;;;;12.97;7.27;;;;;;;;;;5084520;28;20220;-75
2022/03/18 00:58:32;;;;;;;10.30;7.03;;;;;;;;;;5095437;28;20200;-75
2022/03/18 01:01:00;;;;;;;14.30;7.67;;;;;;;;;;5095497;28;20250;-75
2022/03/18 01:03:29;;;;;;;14.17;7.53;;;;;;;;;;5095692;28;20660;-75
2022/03/18 01:05:58;;;;;;;17.50;7.50;;;;;;;;;;5091415;28;20212;-75
2022/03/18 01:08:26;;;;;;;10.70;7.17;;;;;;;;;;5074960;28;20208;-75
2022/03/18 01:10:55;;;;;;;13.10;7.37;;;;;;;;;;5094477;28;20230;-75
2022/03/18 01:13:23;;;;;;;10.97;7.20;;;;;;;;;;5094427;28;20208;-75
2022/03/18 01:15:53;;;;;;;10.80;7.57;;;;;;;;;;5086466;28;20221;-75
2022/03/18 01:18:22;;;;;;;13.87;7.50;;;;;;;;;;5075527;28;20240;-75
2022/03/18 01:20:50;;;;;;;13.13;7.33;;;;;;;;;;5082683;28;20261;-75
2022/03/18 01:23:19;;;;;;;13.20;7.93;;;;;;;;;;5095162;28;20228;-75
2022/03/18 01:25:47;;;;;;;11.17;7.57;;;;;;;;;;5087369;28;20208;-75
2022/03/18 01:28:15;;;;;;;11.80;7.47;;;;;;;;;;5082508;28;20250;-75
2022/03/18 01:30:44;;;;;;;10.70;7.17;;;;;;;;;;5093898;28;20203;-75
2022/03/18 01:33:14;;;;;;;10.83;7.30;;;;;;;;;;5094959;28;20196;-74
2022/03/18 01:35:43;;;;;;;12.57;7.53;;;;;;;;;;5089172;28;20691;-75
2022/03/18 01:38:11;;;;;;;10.00;7.37;;;;;;;;;;5094415;28;20289;-75
2022/03/18 01:40:40;;;;;;;13.57;7.77;;;;;;;;;;5093768;28;20207;-75
2022/03/18 01:43:09;;;;;;;10.63;7.90;;;;;;;;;;5093806;28;20209;-75
2022/03/18 01:45:38;;;;;;;12.23;7.57;;;;;;;;;;5092122;28;20200;-75
2022/03/18 01:48:08;;;;;;;11.50;7.13;;;;;;;;;;5094518;28;20596;-75
2022/03/18 01:50:40;;;;;;;10.27;6.83;;;;;;;;;;5093830;28;20256;-75
2022/03/18 01:53:10;;;;;;;14.73;6.83;;;;;;;;;;5094149;28;20209;-76
2022/03/18 01:55:39;;;;;;;11.47;6.60;;;;;;;;;;5093559;28;20236;-75
2022/03/18 01:58:07;;;;;;;11.90;7.13;;;;;;;;;;5094630;28;20223;-75
2022/03/18 02:00:36;;;;;;;13.73;7.30;;;;;;;;;;5093805;28;20209;-75
2022/03/18 02:03:04;;;;;;;12.77;7.17;;;;;;;;;;5087775;28;20214;-75
2022/03/18 02:05:33;;;;;;;10.13;7.90;;;;;;;;;;5084918;28;20200;-75
2022/03/18 02:08:06;;;;;;;12.83;7.50;;;;;;;;;;5092601;28;20229;-75
2022/03/18 02:10:35;;;;;;;13.40;8.33;;;;;;;;;;5093220;28;20211;-75
2022/03/18 02:13:03;;;;;;;16.37;8.73;;;;;;;;;;5093830;28;20253;-75
2022/03/18 02:15:32;;;;;;;13.37;8.33;;;;;;;;;;5093264;28;20215;-75
2022/03/18 02:18:00;;;;;;;13.93;7.97;;;;;;;;;;5092662;28;20226;-75
2022/03/18 02:20:29;;;;;;;13.17;8.53;;;;;;;;;;5093349;28;20281;-75
2022/03/18 02:22:59;;;;;;;13.30;7.90;;;;;;;;;;5093656;28;20207;-76
2022/03/18 02:25:27;;;;;;;14.20;8.17;;;;;;;;;;5092979;28;20203;-75
2022/03/18 02:27:56;;;;;;;12.03;7.77;;;;;;;;;;5093831;28;20223;-75
2022/03/18 02:30:26;;;;;;;13.83;8.17;;;;;;;;;;5093406;28;20204;-75
2022/03/18 02:32:56;;;;;;;16.47;8.20;;;;;;;;;;5092925;28;20252;-75
2022/03/18 02:35:26;;;;;;;13.43;7.50;;;;;;;;;;5092309;28;20230;-75
2022/03/18 02:37:54;;;;;;;10.83;6.80;;;;;;;;;;5092171;28;20682;-74
2022/03/18 02:40:25;;;;;;;11.57;7.57;;;;;;;;;;5092676;28;20212;-76
2022/03/18 02:42:53;;;;;;;11.93;7.17;;;;;;;;;;5094530;28;20631;-75
2022/03/18 02:45:22;;;;;;;13.20;7.67;;;;;;;;;;5091722;28;20199;-75
2022/03/18 02:47:50;;;;;;;17.37;8.00;;;;;;;;;;5091470;28;20629;-74
2022/03/18 02:50:18;;;;;;;12.30;8.33;;;;;;;;;;5091744;28;20652;-75
2022/03/18 02:52:47;;;;;;;13.03;8.17;;;;;;;;;;5093341;28;20206;-74
2022/03/18 02:55:17;;;;;;;17.00;8.47;;;;;;;;;;5092621;28;20720;-75
2022/03/18 02:57:47;;;;;;;15.33;8.57;;;;;;;;;;5093216;28;20642;-75
2022/03/18 03:00:16;;;;;;;13.53;8.33;;;;;;;;;;5079613;28;20199;-74
2022/03/18 03:02:45;;;;;;;13.37;7.73;;;;;;;;;;5092770;28;20204;-74
2022/03/18 03:08:00;;;;;;;14.00;9.37;;;;;;;;;;5076483;28;20220;-74
2022/03/18 03:10:29;;;;;;;15.90;9.60;;;;;;;;;;5091666;28;20216;-75
2022/03/18 03:13:01;;;;;;;15.90;8.13;;;;;;;;;;5093379;28;20209;-75
2022/03/18 03:15:29;;;;;;;11.30;9.23;;;;;;;;;;5087746;28;20246;-76
2022/03/18 03:17:58;;;;;;;17.70;9.00;;;;;;;;;;5091174;28;20228;-74
2022/03/18 03:20:27;;;;;;;15.70;9.53;;;;;;;;;;5092265;28;20234;-74
2022/03/18 03:22:55;;;;;;;12.07;8.70;;;;;;;;;;5092653;28;20202;-75
2022/03/18 03:25:24;;;;;;;15.30;8.23;;;;;;;;;;5092370;28;20658;-74
2022/03/18 03:27:53;;;;;;;15.80;8.20;;;;;;;;;;5092964;28;20765;-74
2022/03/18 03:30:23;;;;;;;17.10;9.80;;;;;;;;;;5073370;28;20697;-75
2022/03/18 03:32:52;;;;;;;18.23;9.57;;;;;;;;;;5087060;28;20210;-75
2022/03/18 03:35:20;;;;;;;13.43;9.30;;;;;;;;;;5092357;28;20255;-74
2022/03/18 03:37:49;;;;;;;14.07;9.30;;;;;;;;;;5093010;28;20231;-75
2022/03/18 03:40:19;;;;;;;13.97;8.93;;;;;;;;;;5090912;28;20209;-75
2022/03/18 03:42:48;;;;;;;14.83;9.30;;;;;;;;;;5092601;28;20208;-75
2022/03/18 03:45:16;;;;;;;13.87;9.60;;;;;;;;;;5091635;28;20207;-74
2022/03/18 03:47:46;;;;;;;13.30;8.40;;;;;;;;;;5092104;28;20227;-75
2022/03/18 03:50:14;;;;;;;13.20;8.43;;;;;;;;;;5091713;28;20708;-75
2022/03/18 03:52:43;;;;;;;14.63;8.97;;;;;;;;;;5092955;28;20643;-75
2022/03/18 03:55:13;;;;;;;14.43;8.80;;;;;;;;;;5092199;28;20658;-76
2022/03/18 03:57:42;;;;;;;13.47;9.30;;;;;;;;;;5088746;28;20260;-75
2022/03/18 04:00:11;;;;;;;12.47;9.17;;;;;;;;;;5090249;28;20680;-75
2022/03/18 04:02:40;;;;;;;15.20;9.70;;;;;;;;;;5092247;28;20198;-75
2022/03/18 04:05:10;;;;;;;19.53;9.57;;;;;;;;;;5092133;28;20214;-75
2022/03/18 04:07:39;;;;;;;11.50;9.40;;;;;;;;;;5092867;28;20241;-75
2022/03/18 04:10:08;;;;;;;14.70;9.53;;;;;;;;;;5091822;28;20213;-75
2022/03/18 04:12:37;;;;;;;16.53;9.83;;;;;;;;;;5092079;28;20206;-75
2022/03/18 04:15:08;;;;;;;19.03;9.90;;;;;;;;;;5094193;28;20210;-74
2022/03/18 04:17:40;;;;;;;13.30;8.57;;;;;;;;;;5095353;28;20229;-75
2022/03/18 04:20:11;;;;;;;14.80;9.53;;;;;;;;;;5095305;28;20198;-75
2022/03/18 04:22:40;;;;;;;12.93;9.40;;;;;;;;;;5095612;28;20228;-75
2022/03/18 04:25:09;;;;;;;16.10;9.53;;;;;;;;;;5095611;28;20657;-75
2022/03/18 04:27:38;;;;;;;16.00;10.40;;;;;;;;;;5095802;28;20221;-75
2022/03/18 04:30:09;;;;;;;14.67;9.90;;;;;;;;;;5095462;28;20650;-75
2022/03/18 04:32:37;;;;;;;17.23;11.17;;;;;;;;;;5095176;28;20327;-74
2022/03/18 04:35:07;;;;;;;12.73;9.97;;;;;;;;;;5095485;28;20661;-75
2022/03/18 04:37:37;;;;;;;19.33;11.30;;;;;;;;;;5094594;28;20270;-75
2022/03/18 04:40:06;;;;;;;18.43;11.03;;;;;;;;;;5093122;28;20209;-75
2022/03/18 04:42:34;;;;;;;17.97;11.73;;;;;;;;;;5095330;28;20208;-75
2022/03/18 04:45:03;;;;;;;13.77;10.30;;;;;;;;;;5094978;28;20902;-75
2022/03/18 04:47:33;;;;;;;18.60;11.10;;;;;;;;;;5095914;28;20218;-74
2022/03/18 04:50:02;;;;;;;17.57;10.83;;;;;;;;;;5094546;28;20534;-75
2022/03/18 04:52:30;;;;;;;21.30;11.60;;;;;;;;;;5094786;28;20209;-75
2022/03/18 04:55:00;;;;;;;18.00;12.90;;;;;;;;;;5094771;28;20207;-75
2022/03/18 04:57:29;;;;;;;17.53;12.93;;;;;;;;;;5095489;28;20232;-75
2022/03/18 04:59:57;;;;;;;17.30;12.33;;;;;;;;;;5094272;28;20264;-75
2022/03/18 05:02:26;;;;;;;17.77;13.40;;;;;;;;;;5095268;28;20233;-74
2022/03/18 05:04:55;;;;;;;21.43;13.47;;;;;;;;;;5094667;28;20716;-74
2022/03/18 05:07:25;;;;;;;18.90;13.23;;;;;;;;;;5094531;28;20620;-74
2022/03/18 05:09:54;;;;;;;20.67;13.83;;;;;;;;;;5093349;28;20233;-74
2022/03/18 05:12:26;;;;;;;20.73;13.33;;;;;;;;;;5095499;28;20563;-74
2022/03/18 05:14:55;;;;;;;18.93;13.67;;;;;;;;;;5094161;28;20251;-74
2022/03/18 05:17:23;;;;;;;21.80;14.97;;;;;;;;;;5094917;28;20222;-74
2022/03/18 05:19:52;;;;;;;20.00;13.90;;;;;;;;;;5093649;28;20209;-74
2022/03/18 05:22:20;;;;;;;24.63;18.70;;;;;;;;;;5093963;28;20206;-74
2022/03/18 05:24:49;;;;;;;23.93;17.80;;;;;;;;;;5093536;28;20215;-74
2022/03/18 05:27:18;;;;;;;21.87;17.73;;;;;;;;;;5094705;28;20225;-74
2022/03/18 05:29:48;;;;;;;20.57;16.07;;;;;;;;;;5094526;28;20665;-74
2022/03/18 05:32:17;;;;;;;22.40;16.07;;;;;;;;;;5093991;28;20658;-74
2022/03/18 05:34:45;;;;;;;21.33;15.63;;;;;;;;;;5093921;28;20202;-74
2022/03/18 05:37:14;;;;;;;22.07;15.60;;;;;;;;;;5094622;28;20226;-74
2022/03/18 05:39:42;;;;;;;22.80;16.43;;;;;;;;;;5089404;28;20203;-74
2022/03/18 05:42:11;;;;;;;21.17;14.73;;;;;;;;;;5094556;28;20250;-74
2022/03/18 05:44:39;;;;;;;22.03;15.37;;;;;;;;;;5093930;28;20195;-74
2022/03/18 05:47:09;;;;;;;19.23;14.93;;;;;;;;;;5094814;28;20222;-74
2022/03/18 05:49:38;;;;;;;23.83;15.07;;;;;;;;;;5092868;28;20204;-74
2022/03/18 05:52:08;;;;;;;24.90;15.70;;;;;;;;;;5093657;28;20217;-74
2022/03/18 05:54:37;;;;;;;22.83;14.73;;;;;;;;;;5093825;28;20415;-73
2022/03/18 05:57:05;;;;;;;21.37;15.00;;;;;;;;;;5093747;28;20217;-74
2022/03/18 05:59:35;;;;;;;22.30;14.93;;;;;;;;;;5094493;28;20198;-73
2022/03/18 06:02:03;;;;;;;17.17;13.93;;;;;;;;;;5094059;28;20198;-73
2022/03/18 06:04:35;;;;;;;21.50;15.03;;;;;;;;;;5091475;28;20296;-73
2022/03/18 06:07:05;;;;;;;21.90;14.67;;;;;;;;;;5092155;28;20220;-74
2022/03/18 06:12:20;;;;;;;18.83;14.20;;;;;;;;;;5085106;28;20210;-74
2022/03/18 06:14:49;;;;;;;19.33;14.07;;;;;;;;;;5088292;28;20209;-74
2022/03/18 06:17:18;;;;;;;19.67;13.97;;;;;;;;;;5085504;28;20234;-74
2022/03/18 06:19:47;;;;;;;19.47;14.17;;;;;;;;;;5088200;28;20293;-74
2022/03/18 06:22:16;;;;;;;22.10;15.23;;;;;;;;;;5093103;28;20198;-73
2022/03/18 06:24:45;;;;;;;21.67;14.97;;;;;;;;;;5093998;28;20603;-74
2022/03/18 06:27:13;;;;;;;18.00;13.87;;;;;;;;;;5089200;28;20759;-74
2022/03/18 06:29:43;;;;;;;19.40;14.63;;;;;;;;;;5088289;28;20239;-74
2022/03/18 06:32:12;;;;;;;17.97;14.30;;;;;;;;;;5089722;28;20230;-74
2022/03/18 06:34:40;;;;;;;17.73;13.73;;;;;;;;;;5092938;28;20191;-74
2022/03/18 06:37:10;;;;;;;18.53;13.23;;;;;;;;;;5083116;28;20286;-74
2022/03/18 06:39:39;;;;;;;18.87;13.77;;;;;;;;;;5081590;28;20287;-74
2022/03/18 06:42:07;;;;;;;18.50;14.13;;;;;;;;;;5093085;28;20202;-74
2022/03/18 06:44:36;;;;;;;22.30;14.30;;;;;;;;;;5093483;28;20536;-74
2022/03/18 06:47:04;;;;;;;20.50;14.93;;;;;;;;;;5093681;28;20220;-74
2022/03/18 06:49:33;;;;;;;22.03;15.30;;;;;;;;;;5092373;28;20662;-74
2022/03/18 06:52:03;;;;;;;23.60;15.07;;;;;;;;;;5091934;28;20210;-75
2022/03/18 06:54:33;;;;;;;21.30;17.23;;;;;;;;;;5093411;28;20210;-74
2022/03/18 06:57:01;;;;;;;23.40;16.97;;;;;;;;;;5093415;28;20235;-74
2022/03/18 06:59:30;;;;;;;24.53;17.73;;;;;;;;;;5093205;28;20209;-74
2022/03/18 07:01:58;;;;;;;27.70;20.23;;;;;;;;;;5093337;28;20210;-75
2022/03/18 07:04:27;;;;;;;30.10;19.87;;;;;;;;;;5093334;28;20662;-75
2022/03/18 07:06:56;;;;;;;20.60;18.40;;;;;;;;;;5092554;28;20229;-75
2022/03/18 07:09:24;;;;;;;20.83;15.27;;;;;;;;;;5093404;28;20252;-75
2022/03/18 07:11:54;;;;;;;21.33;14.63;;;;;;;;;;5093321;28;20623;-75
2022/03/18 07:14:22;;;;;;;19.60;13.63;;;;;;;;;;5093775;28;20660;-75
2022/03/18 07:19:52;;;;;;;14.93;11.07;;;;;;;;;;5050900;28;20618;-75
2022/03/18 07:22:21;;;;;;;15.10;10.50;;;;;;;;;;5051178;28;20564;-76
2022/03/18 07:24:49;;;;;;;15.67;10.27;;;;;;;;;;5070404;28;20203;-76
2022/03/18 07:27:19;;;;;;;14.00;9.93;;;;;;;;;;5088127;28;20230;-76
2022/03/18 07:29:48;;;;;;;12.30;8.60;;;;;;;;;;5089751;28;20198;-75
2022/03/18 07:32:17;;;;;;;13.50;9.37;;;;;;;;;;5092368;28;20233;-76
2022/03/18 07:34:46;;;;;;;13.60;9.10;;;;;;;;;;5093226;28;20206;-76
2022/03/18 07:37:14;;;;;;;11.37;10.10;;;;;;;;;;5093054;28;20643;-76
2022/03/18 07:39:43;;;;;;;13.50;9.40;;;;;;;;;;5093408;28;20209;-76
2022/03/18 07:42:11;;;;;;;16.77;9.93;;;;;;;;;;5093188;28;20202;-77
2022/03/18 07:44:41;;;;;;;14.90;9.50;;;;;;;;;;5093162;28;20605;-76
2022/03/18 07:47:10;;;;;;;13.53;9.27;;;;;;;;;;5073162;28;20226;-77
2022/03/18 07:49:38;;;;;;;13.40;9.73;;;;;;;;;;5078061;28;20663;-76
2022/03/18 07:52:07;;;;;;;15.93;10.00;;;;;;;;;;5097610;28;20204;-77
2022/03/18 07:54:36;;;;;;;13.60;10.43;;;;;;;;;;5098478;28;20197;-77
2022/03/18 07:57:04;;;;;;;15.77;10.73;;;;;;;;;;5098350;28;20269;-76
2022/03/18 07:59:33;;;;;;;14.83;10.77;;;;;;;;;;5098737;28;20225;-77
2022/03/18 08:02:02;;;;;;;16.17;11.07;;;;;;;;;;5102454;28;20610;-77
2022/03/18 08:04:31;;;;;;;16.80;11.00;;;;;;;;;;5096462;28;20199;-77
2022/03/18 08:07:03;;;;;;;16.60;10.43;;;;;;;;;;5094635;28;20225;-77
2022/03/18 08:09:31;;;;;;;13.70;9.63;;;;;;;;;;5101144;28;20209;-77
2022/03/18 08:12:00;;;;;;;13.97;8.90;;;;;;;;;;5100572;28;20256;-77
2022/03/18 08:14:28;;;;;;;18.77;10.00;;;;;;;;;;5099190;28;20236;-77
2022/03/18 08:16:57;;;;;;;14.70;9.17;;;;;;;;;;5098455;28;20767;-77
2022/03/18 08:19:27;;;;;;;14.83;8.57;;;;;;;;;;5079103;28;20322;-77
2022/03/18 08:21:56;;;;;;;13.73;7.40;;;;;;;;;;5079341;28;20534;-77
2022/03/18 08:24:25;;;;;;;14.80;8.00;;;;;;;;;;5079282;28;20202;-77
2022/03/18 08:26:54;;;;;;;13.27;7.17;;;;;;;;;;5080575;28;20590;-77
2022/03/18 08:29:22;;;;;;;15.90;7.03;;;;;;;;;;5096758;28;20198;-77
2022/03/18 08:31:51;;;;;;;12.50;6.47;;;;;;;;;;5105327;28;20205;-78
2022/03/18 08:34:20;;;;;;;13.17;6.77;;;;;;;;;;5107556;28;20243;-77
2022/03/18 08:36:50;;;;;;;11.60;6.37;;;;;;;;;;5101127;28;20251;-77
2022/03/18 08:39:19;;;;;;;13.50;6.30;;;;;;;;;;5103742;28;20641;-77
2022/03/18 08:41:47;;;;;;;11.50;6.23;;;;;;;;;;5105833;28;20216;-77
2022/03/18 08:44:19;;;;;;;11.70;5.93;;;;;;;;;;5108048;28;20668;-78
2022/03/18 08:46:48;;;;;;;11.70;5.93;;;;;;;;;;5106277;28;20222;-78
2022/03/18 08:49:16;;;;;;;11.20;6.33;;;;;;;;;;5108476;28;20201;-78
2022/03/18 08:51:45;;;;;;;11.37;4.93;;;;;;;;;;5108248;28;20263;-78
2022/03/18 08:54:15;;;;;;;11.60;5.50;;;;;;;;;;5108259;28;20213;-78
2022/03/18 08:56:43;;;;;;;11.13;4.70;;;;;;;;;;5107938;28;20234;-78
2022/03/18 08:59:11;;;;;;;9.33;4.70;;;;;;;;;;5107521;28;20296;-77
2022/03/18 09:01:40;;;;;;;11.57;4.90;;;;;;;;;;5104758;28;20209;-78
2022/03/18 09:04:09;;;;;;;11.60;4.63;;;;;;;;;;5108472;28;20235;-78
2022/03/18 09:06:37;;;;;;;15.17;4.33;;;;;;;;;;5107724;28;20777;-78
2022/03/18 09:09:05;;;;;;;13.17;4.83;;;;;;;;;;5107961;28;20540;-78
2022/03/18 09:11:35;;;;;;;12.40;4.70;;;;;;;;;;5107413;28;20614;-77
2022/03/18 09:14:04;;;;;;;10.70;4.80;;;;;;;;;;5106926;28;20202;-77
2022/03/18 09:16:36;;;;;;;12.17;4.30;;;;;;;;;;5107768;28;20255;-78
2022/03/18 09:19:05;;;;;;;10.23;4.27;;;;;;;;;;5087182;28;20225;-78
2022/03/18 09:21:37;;;;;;;9.80;4.40;;;;;;;;;;5107178;28;20202;-78
2022/03/18 09:24:05;;;;;;;9.23;4.17;;;;;;;;;;5101780;28;20573;-79
2022/03/18 09:26:37;;;;;;;9.43;4.07;;;;;;;;;;5103937;28;20228;-78
2022/03/18 09:29:08;;;;;;;11.20;4.07;;;;;;;;;;5104961;28;20261;-78
2022/03/18 09:31:37;;;;;;;10.03;4.20;;;;;;;;;;5107826;28;20262;-78
2022/03/18 09:34:06;;;;;;;11.37;4.17;;;;;;;;;;5105240;28;20202;-80
2022/03/18 09:36:35;;;;;;;9.50;4.30;;;;;;;;;;5097630;28;20697;-78
2022/03/18 09:39:04;;;;;;;11.57;4.47;;;;;;;;;;5108307;28;20218;-77
2022/03/18 09:41:32;;;;;;;8.70;3.73;;;;;;;;;;5106412;28;20220;-78
2022/03/18 09:44:02;;;;;;;8.67;4.10;;;;;;;;;;5107493;28;20650;-78
2022/03/18 09:46:31;;;;;;;11.07;3.73;;;;;;;;;;5106977;28;20248;-78
2022/03/18 09:49:01;;;;;;;11.20;3.77;;;;;;;;;;5105647;28;20611;-78
2022/03/18 09:51:29;;;;;;;11.10;3.70;;;;;;;;;;5107444;28;20666;-78
2022/03/18 09:54:16;;;;;;;8.67;3.60;;;;;;;;;;5107351;28;20588;-77
2022/03/18 09:56:45;;;;;;;9.17;4.03;;;;;;;;;;5106868;28;20295;-78
2022/03/18 09:59:15;;;;;;;11.67;3.60;;;;;;;;;;5107464;28;20229;-77
2022/03/18 10:01:44;;;;;;;10.50;3.30;;;;;;;;;;5107798;28;20202;-78
2022/03/18 10:04:13;;;;;;;8.00;3.40;;;;;;;;;;5107254;28;20206;-77
2022/03/18 10:06:42;;;;;;;9.57;3.57;;;;;;;;;;5106865;28;20229;-77
2022/03/18 10:09:11;;;;;;;11.20;3.37;;;;;;;;;;5106833;28;20216;-78
2022/03/18 10:11:43;;;;;;;6.63;3.47;;;;;;;;;;5107553;28;20194;-79
2022/03/18 10:14:15;;;;;;;6.73;2.83;;;;;;;;;;5107358;28;20209;-77
2022/03/18 10:16:46;;;;;;;8.57;3.27;;;;;;;;;;5107202;28;20781;-79
2022/03/18 10:19:15;;;;;;;6.20;3.00;;;;;;;;;;5106723;28;20218;-78
2022/03/18 10:21:51;;;;;;;7.13;3.23;;;;;;;;;;5106387;28;20202;-77
2022/03/18 10:24:23;;;;;;;7.50;3.53;;;;;;;;;;5106235;28;20197;-78
2022/03/18 10:26:52;;;;;;;6.33;3.27;;;;;;;;;;5106519;28;20222;-78
2022/03/18 10:29:20;;;;;;;5.93;3.23;;;;;;;;;;5106506;28;20598;-78
2022/03/18 10:32:03;;;;;;;6.17;3.20;;;;;;;;;;5106205;28;20205;-77
2022/03/18 10:37:25;;;;;;;6.20;3.20;;;;;;;;;;5089203;28;20234;-78
2022/03/18 10:40:00;;;;;;;10.60;3.70;;;;;;;;;;5090404;28;20213;-78
2022/03/18 10:42:30;;;;;;;7.67;3.40;;;;;;;;;;5099569;28;20254;-78
2022/03/18 10:44:59;;;;;;;6.63;3.40;;;;;;;;;;5100860;28;20209;-78
2022/03/18 10:47:30;;;;;;;6.33;3.57;;;;;;;;;;5102980;28;20228;-78
2022/03/18 10:50:14;;;;;;;6.30;3.33;;;;;;;;;;5102999;28;20194;-78
2022/03/18 10:52:59;;;;;;;8.93;3.70;;;;;;;;;;5097564;28;20619;-79
2022/03/18 10:55:29;;;;;;;6.80;3.40;;;;;;;;;;5079050;28;20255;-78
2022/03/18 10:57:59;;;;;;;6.93;3.20;;;;;;;;;;5089101;28;20582;-78
2022/03/18 11:00:28;;;;;;;7.13;3.20;;;;;;;;;;5102301;28;20252;-79
2022/03/18 11:02:59;;;;;;;7.82;3.63;;;;;;;;;;5103197;28;20224;-79
2022/03/18 11:05:28;;;;;;;6.70;3.67;;;;;;;;;;5103685;28;20232;-78
2022/03/18 11:07:57;;;;;;;10.52;3.22;;;;;;;;;;5097832;28;20218;-78
2022/03/18 11:13:14;;;;;;;7.18;3.70;;;;;;;;;;5093839;28;20186;-78
2022/03/18 11:15:43;;;;;;;8.05;3.78;;;;;;;;;;5094361;28;20277;-79
2022/03/18 11:18:14;;;;;;;7.97;3.00;;;;;;;;;;5094014;28;20225;-78
2022/03/18 11:20:43;;;;;;;8.02;3.45;;;;;;;;;;5093743;28;20222;-79
2022/03/18 11:23:15;;;;;;;5.47;3.30;;;;;;;;;;5094857;28;20231;-77
2022/03/18 11:25:44;;;;;;;7.95;2.85;;;;;;;;;;5095108;28;20198;-79
2022/03/18 11:28:16;;;;;;;4.38;2.75;;;;;;;;;;5094013;28;20221;-77
2022/03/18 11:30:47;;;;;;;5.32;2.50;;;;;;;;;;5095601;28;20223;-79
2022/03/18 11:33:23;;;;;;;4.28;2.40;;;;;;;;;;5095882;28;20198;-78
2022/03/18 11:36:09;;;;;;;5.85;2.30;;;;;;;;;;5093715;28;20605;-78
2022/03/18 11:38:58;;;;;;;4.57;2.40;;;;;;;;;;5093927;28;20227;-78
2022/03/18 11:41:28;;;;;;;7.68;2.80;;;;;;;;;;5095531;28;20217;-79
2022/03/18 11:43:56;;;;;;;7.35;2.75;;;;;;;;;;5095207;28;20763;-78
2022/03/18 11:46:27;;;;;;;9.00;2.92;;;;;;;;;;5093008;28;20692;-77
2022/03/18 11:48:58;;;;;;;5.90;2.63;;;;;;;;;;5094191;28;20300;-78
2022/03/18 11:51:28;;;;;;;6.25;2.88;;;;;;;;;;5095103;28;20201;-79
2022/03/18 11:53:59;;;;;;;6.65;3.22;;;;;;;;;;5097669;28;20202;-77
2022/03/18 11:56:44;;;;;;;5.35;2.58;;;;;;;;;;5098982;28;20677;-78
2022/03/18 11:59:28;;;;;;;3.97;2.40;;;;;;;;;;5097378;28;20197;-78
2022/03/18 12:01:57;;;;;;;3.63;2.22;;;;;;;;;;5086688;28;20312;-77
2022/03/18 12:04:40;;;;;;;5.10;2.40;;;;;;;;;;5098984;28;20209;-76
2022/03/18 12:07:09;;;;;;;5.32;2.20;;;;;;;;;;5085371;28;20236;-77
2022/03/18 12:09:59;;;;;;;4.40;2.38;;;;;;;;;;5097487;28;20217;-77
2022/03/18 12:12:30;;;;;;;5.57;2.22;;;;;;;;;;5093002;28;20205;-78
2022/03/18 12:15:00;;;;;;;5.22;2.40;;;;;;;;;;5099274;28;20198;-78
2022/03/18 12:17:29;;;;;;;5.10;2.55;;;;;;;;;;5099175;28;20219;-80
2022/03/18 12:20:00;;;;;;;4.13;2.40;;;;;;;;;;5091229;28;20198;-77
2022/03/18 12:22:30;;;;;;;4.93;2.50;;;;;;;;;;5094183;28;20204;-77
2022/03/18 12:24:58;;;;;;;5.38;2.58;;;;;;;;;;5089308;28;20206;-78
2022/03/18 12:27:32;;;;;;;4.55;2.70;;;;;;;;;;5093175;28;20232;-78
2022/03/18 12:30:02;;;;;;;5.75;2.63;;;;;;;;;;5101955;28;20204;-78
2022/03/18 12:32:34;;;;;;;5.88;3.10;;;;;;;;;;5099403;28;20293;-77
2022/03/18 12:35:04;;;;;;;5.72;2.65;;;;;;;;;;5101114;28;20202;-77
2022/03/18 12:37:34;;;;;;;5.20;2.58;;;;;;;;;;5090102;28;20257;-79
2022/03/18 12:40:04;;;;;;;4.50;2.38;;;;;;;;;;5098862;28;20259;-77
2022/03/18 12:42:33;;;;;;;6.38;2.67;;;;;;;;;;5105246;28;20223;-78
2022/03/18 12:45:02;;;;;;;4.38;2.53;;;;;;;;;;5103134;28;20201;-78
2022/03/18 12:47:31;;;;;;;5.72;2.80;;;;;;;;;;5102343;28;20230;-77
2022/03/18 12:50:00;;;;;;;4.05;2.60;;;;;;;;;;5091107;28;20202;-79
2022/03/18 12:59:05;;;;;;;5.18;2.80;;;;;;;;;;4674927;28;9999601;-74
2022/03/18 13:01:51;;;;;;;5.28;3.08;;;;;;;;;;5020593;28;20224;-73
2022/03/18 13:04:20;;;;;;;4.60;2.90;;;;;;;;;;5027822;28;20656;-74
2022/03/18 13:06:56;;;;;;;8.80;3.20;;;;;;;;;;5027843;28;20231;-73
2022/03/18 13:09:48;;;;;;;6.15;2.80;;;;;;;;;;5013782;28;20682;-74
2022/03/18 13:12:26;;;;;;;5.47;3.20;;;;;;;;;;5010752;28;20574;-73
2022/03/18 13:14:56;;;;;;;5.88;3.30;;;;;;;;;;5021260;28;20208;-74
2022/03/18 13:17:27;;;;;;;5.95;3.40;;;;;;;;;;5023347;28;20227;-73
2022/03/18 13:19:56;;;;;;;5.80;2.92;;;;;;;;;;5030054;28;21021;-74
2022/03/18 13:22:24;;;;;;;6.63;3.50;;;;;;;;;;5012048;28;20244;-73
2022/03/18 13:24:54;;;;;;;7.10;3.35;;;;;;;;;;5019656;28;20199;-74
2022/03/18 13:27:23;;;;;;;5.15;2.95;;;;;;;;;;5018192;28;20274;-73
2022/03/18 13:32:53;;;;;;;5.78;2.97;;;;;;;;;;5011851;28;20255;-73
2022/03/18 13:35:23;;;;;;;6.28;3.20;;;;;;;;;;5015164;28;20660;-74
2022/03/18 13:38:05;;;;;;;6.25;2.92;;;;;;;;;;5020106;28;20228;-74
2022/03/18 13:40:34;;;;;;;4.93;2.90;;;;;;;;;;5011590;28;20204;-74
2022/03/18 13:43:04;;;;;;;6.40;2.90;;;;;;;;;;5011105;28;20698;-74
2022/03/18 13:45:38;;;;;;;4.15;3.17;;;;;;;;;;5011944;28;20211;-74
2022/03/18 13:48:08;;;;;;;5.90;2.90;;;;;;;;;;5030740;28;20698;-74
2022/03/18 13:50:43;;;;;;;4.63;3.10;;;;;;;;;;5031295;28;20666;-74
2022/03/18 13:53:19;;;;;;;8.00;3.50;;;;;;;;;;5030848;28;20230;-74
2022/03/18 13:55:47;;;;;;;5.50;3.58;;;;;;;;;;5020710;28;20203;-74
2022/03/18 13:58:25;;;;;;;6.43;3.40;;;;;;;;;;5017928;28;20271;-74
2022/03/18 14:00:54;;;;;;;6.90;3.17;;;;;;;;;;5012316;28;20215;-74
2022/03/18 14:03:32;;;;;;;5.40;3.50;;;;;;;;;;5011571;28;20204;-74
2022/03/18 14:06:01;;;;;;;5.07;3.30;;;;;;;;;;5024000;28;20246;-74
2022/03/18 14:08:30;;;;;;;4.35;3.17;;;;;;;;;;5025348;28;20227;-74
2022/03/18 14:11:00;;;;;;;4.75;3.10;;;;;;;;;;5023087;28;20204;-74
2022/03/18 14:13:30;;;;;;;5.47;3.47;;;;;;;;;;5029201;28;20203;-74
2022/03/18 14:15:59;;;;;;;6.00;3.20;;;;;;;;;;5023144;28;20288;-73
2022/03/18 14:18:41;;;;;;;4.80;3.13;;;;;;;;;;5026558;28;20219;-73
2022/03/18 14:21:11;;;;;;;5.60;3.40;;;;;;;;;;5026467;28;20234;-74
2022/03/18 14:23:44;;;;;;;5.93;3.43;;;;;;;;;;5029084;28;20204;-74
2022/03/18 14:26:12;;;;;;;5.85;3.40;;;;;;;;;;5028189;28;20540;-73
2022/03/18 14:28:42;;;;;;;5.40;3.10;;;;;;;;;;5021637;28;20204;-73
2022/03/18 14:31:13;;;;;;;7.65;3.78;;;;;;;;;;5030456;28;20192;-74
2022/03/18 14:33:41;;;;;;;5.60;3.10;;;;;;;;;;5029763;28;20920;-73
2022/03/18 14:36:11;;;;;;;5.23;3.07;;;;;;;;;;5019571;28;20238;-74
2022/03/18 14:38:43;;;;;;;5.63;3.10;;;;;;;;;;5025275;28;20197;-74
2022/03/18 14:41:12;;;;;;;5.57;3.23;;;;;;;;;;5018952;28;20270;-74
2022/03/18 14:43:40;;;;;;;7.13;3.63;;;;;;;;;;5025083;28;20302;-74
2022/03/18 14:46:09;;;;;;;5.73;2.90;;;;;;;;;;5025924;28;20289;-75
2022/03/18 14:48:38;;;;;;;7.17;3.60;;;;;;;;;;5025451;28;20212;-74
2022/03/18 14:51:06;;;;;;;5.90;3.20;;;;;;;;;;5030761;28;20212;-74
2022/03/18 14:53:36;;;;;;;6.47;3.37;;;;;;;;;;5027211;28;20619;-74
2022/03/18 14:56:19;;;;;;;6.53;3.50;;;;;;;;;;5029959;28;20607;-74
2022/03/18 14:58:47;;;;;;;5.47;3.50;;;;;;;;;;5028243;28;20606;-74
2022/03/18 15:01:16;;;;;;;6.23;3.40;;;;;;;;;;5030299;28;20721;-74
2022/03/18 15:03:44;;;;;;;5.73;3.17;;;;;;;;;;5029807;28;20208;-73
2022/03/18 15:06:13;;;;;;;6.80;3.50;;;;;;;;;;5024236;28;20295;-74
2022/03/18 15:08:43;;;;;;;5.70;3.47;;;;;;;;;;5015497;28;20800;-73
2022/03/18 15:11:11;;;;;;;8.70;3.80;;;;;;;;;;5029620;28;20605;-74
2022/03/18 15:13:39;;;;;;;8.80;3.70;;;;;;;;;;5029922;28;20327;-74
2022/03/18 15:16:08;;;;;;;6.40;3.30;;;;;;;;;;5025926;28;20208;-74